createdAt,value
2022-12-12T00:04:50.000Z,23.08
2022-12-12T00:09:41.099Z,22.83
2022-12-12T00:14:41.227Z,22.83
2022-12-12T00:19:43.726Z,23.57
2022-12-12T00:24:36.486Z,23.63
2022-12-12T00:29:29.556Z,24.65
2022-12-12T00:34:26.366Z,24.63
2022-12-12T00:39:20.833Z,25.38
2022-12-12T00:44:11.626Z,24.80
2022-12-12T00:49:23.007Z,25.35
2022-12-12T00:54:18.161Z,25.63
2022-12-12T00:59:29.240Z,24.77
2022-12-12T01:04:24.741Z,26.70
2022-12-12T01:09:15.220Z,26.15
2022-12-12T01:14:09.527Z,26.45
2022-12-12T01:19:12.891Z,26.25
2022-12-12T01:24:05.144Z,26.98
2022-12-12T01:29:01.147Z,26.83
2022-12-12T01:33:53.930Z,27.13
2022-12-12T01:38:57.849Z,26.52
2022-12-12T01:43:49.648Z,27.90
2022-12-12T01:48:48.043Z,27.25
2022-12-12T01:53:42.895Z,28.25
2022-12-12T01:58:39.443Z,29.17
2022-12-12T02:03:35.148Z,27.30
2022-12-12T02:08:44.128Z,27.27
2022-12-12T02:13:48.519Z,28.85
2022-12-12T02:18:50.120Z,29.80
2022-12-12T02:24:19.361Z,30.10
2022-12-12T02:29:56.930Z,30.02
2022-12-12T02:34:59.198Z,28.77
2022-12-12T02:40:01.510Z,29.30
2022-12-12T02:45:10.909Z,29.50
2022-12-12T02:50:14.489Z,30.20
2022-12-12T02:55:13.884Z,30.17
2022-12-12T03:00:10.562Z,29.50
2022-12-12T03:05:37.942Z,29.57
2022-12-12T03:10:45.508Z,30.20
2022-12-12T03:15:49.444Z,29.98
2022-12-12T03:20:51.326Z,29.48
2022-12-12T03:25:54.370Z,29.73
2022-12-12T03:31:02.360Z,29.20
2022-12-12T03:36:04.526Z,27.77
2022-12-12T03:41:06.114Z,28.05
2022-12-12T03:46:01.980Z,28.40
2022-12-12T03:50:59.618Z,28.50
2022-12-12T03:56:21.254Z,28.17
2022-12-12T04:01:22.271Z,26.52
2022-12-12T04:06:35.853Z,27.07
2022-12-12T04:11:40.669Z,27.20
2022-12-12T04:16:37.252Z,27.08
2022-12-12T04:21:52.162Z,26.77
2022-12-12T04:26:53.447Z,25.60
2022-12-12T04:31:56.948Z,26.85
2022-12-12T04:37:10.236Z,24.83
2022-12-12T04:42:06.844Z,25.93
2022-12-12T04:47:04.311Z,26.67
2022-12-12T04:52:00.490Z,24.53
2022-12-12T04:57:08.363Z,24.95
2022-12-12T05:02:12.071Z,24.85
2022-12-12T05:07:15.383Z,23.67
2022-12-12T05:12:10.206Z,23.67
2022-12-12T05:17:18.124Z,25.77
2022-12-12T05:22:14.135Z,24.00
2022-12-12T05:27:17.601Z,24.98
2022-12-12T05:32:09.339Z,24.73
2022-12-12T05:37:07.974Z,24.80
2022-12-12T05:42:01.133Z,25.02
2022-12-12T05:47:07.598Z,25.23
2022-12-12T05:51:59.178Z,24.13
2022-12-12T05:56:57.817Z,24.47
2022-12-12T06:01:51.242Z,24.70
2022-12-12T06:06:48.044Z,25.25
2022-12-12T06:11:40.312Z,23.83
2022-12-12T06:16:37.466Z,24.70
2022-12-12T06:21:29.890Z,24.30
2022-12-12T06:26:26.308Z,23.08
2022-12-12T06:31:19.593Z,24.43
2022-12-12T06:36:17.371Z,24.33
2022-12-12T06:41:15.514Z,23.83
2022-12-12T06:46:20.351Z,24.90
2022-12-12T06:51:21.626Z,24.37
2022-12-12T06:56:17.980Z,24.45
2022-12-12T07:01:15.376Z,25.20
2022-12-12T07:06:11.839Z,25.93
2022-12-12T07:11:23.401Z,25.70
2022-12-12T07:16:20.580Z,26.67
2022-12-12T07:21:16.749Z,25.45
2022-12-12T07:26:27.657Z,24.45
2022-12-12T07:31:29.289Z,25.05
2022-12-12T07:36:23.914Z,24.08
2022-12-12T07:41:20.785Z,24.88
2022-12-12T07:46:18.132Z,24.27
2022-12-12T07:51:17.377Z,24.63
2022-12-12T07:56:15.330Z,24.08
2022-12-12T08:01:14.930Z,24.20
2022-12-12T08:06:30.419Z,23.60
2022-12-12T08:11:45.939Z,24.40
2022-12-12T08:16:55.804Z,23.27
2022-12-12T08:21:54.436Z,23.73
2022-12-12T08:26:58.119Z,23.50
2022-12-12T08:31:48.415Z,24.08
2022-12-12T08:36:46.047Z,23.75
2022-12-12T08:42:00.887Z,23.20
2022-12-12T08:47:01.445Z,22.80
2022-12-12T08:51:56.675Z,21.95
2022-12-12T08:56:51.648Z,23.13
2022-12-12T09:01:52.922Z,22.42
2022-12-12T09:06:53.764Z,22.58
2022-12-12T09:11:50.792Z,21.83
2022-12-12T09:16:44.101Z,22.25
2022-12-12T09:21:41.045Z,22.15
2022-12-12T09:26:40.479Z,22.17
2022-12-12T09:31:44.561Z,21.88
2022-12-12T09:36:35.674Z,21.77
2022-12-12T09:41:31.505Z,21.25
2022-12-12T09:46:39.065Z,21.33
2022-12-12T09:51:34.556Z,20.30
2022-12-12T09:56:34.374Z,20.38
2022-12-12T10:01:40.756Z,19.20
2022-12-12T10:06:55.172Z,19.75
2022-12-12T10:12:02.153Z,19.40
2022-12-12T10:17:18.876Z,14.70
2022-12-12T10:22:26.297Z,13.05
2022-12-12T10:27:33.782Z,13.95
2022-12-12T10:32:49.091Z,15.65
2022-12-12T10:37:53.374Z,13.07
2022-12-12T10:43:03.061Z,13.15
2022-12-12T10:48:05.913Z,13.23
2022-12-12T10:53:02.312Z,12.55
2022-12-12T10:58:15.820Z,13.40
2022-12-12T11:03:32.585Z,12.98
2022-12-12T11:08:34.513Z,14.10
2022-12-12T11:13:31.162Z,14.88
2022-12-12T11:18:30.568Z,13.30
2022-12-12T11:23:38.300Z,14.40
2022-12-12T11:28:53.195Z,15.07
2022-12-12T11:33:54.491Z,14.07
2022-12-12T11:38:56.316Z,13.40
2022-12-12T11:44:01.788Z,12.25
2022-12-12T11:49:07.374Z,12.45
2022-12-12T11:53:57.930Z,11.85
2022-12-12T11:59:06.067Z,12.43
2022-12-12T12:04:29.747Z,12.60
2022-12-12T12:09:36.278Z,12.30
2022-12-12T12:15:06.646Z,12.43
2022-12-12T12:20:15.610Z,10.85
2022-12-12T12:25:38.688Z,13.80
2022-12-12T12:30:45.318Z,10.75
2022-12-12T12:35:56.313Z,12.23
2022-12-12T12:41:04.444Z,10.65
2022-12-12T12:46:02.063Z,15.65
2022-12-12T12:51:14.295Z,15.75
2022-12-12T12:56:23.606Z,14.97
2022-12-12T13:01:24.137Z,14.23
2022-12-12T13:06:25.697Z,14.20
2022-12-12T13:11:32.115Z,14.68
2022-12-12T13:16:28.601Z,14.20
2022-12-12T13:21:35.994Z,12.77
2022-12-12T13:26:41.304Z,12.73
2022-12-12T13:32:06.706Z,13.60
2022-12-12T13:37:05.226Z,13.85
2022-12-12T13:42:07.012Z,14.10
2022-12-12T13:47:11.075Z,13.93
2022-12-12T13:52:31.825Z,13.50
2022-12-12T13:57:43.955Z,13.85
2022-12-12T14:02:45.223Z,12.90
2022-12-12T14:07:40.207Z,12.48
2022-12-12T14:12:36.265Z,12.70
2022-12-12T14:17:28.337Z,12.45
2022-12-12T14:22:30.625Z,12.73
2022-12-12T14:27:58.936Z,11.77
2022-12-12T14:33:20.942Z,11.88
2022-12-12T14:38:37.246Z,12.57
2022-12-12T14:44:37.297Z,12.35
2022-12-12T14:49:19.435Z,12.50
2022-12-12T14:54:25.509Z,12.30
2022-12-12T14:59:29.990Z,12.85
2022-12-12T15:04:33.396Z,12.88
2022-12-12T15:09:42.568Z,13.45
2022-12-12T15:14:46.790Z,12.63
2022-12-12T15:19:49.447Z,13.38
2022-12-12T15:24:44.773Z,14.70
2022-12-12T15:29:35.493Z,14.80
2022-12-12T15:34:49.451Z,14.75
2022-12-12T15:39:48.643Z,14.90
2022-12-12T15:44:42.410Z,13.97
2022-12-12T15:49:44.359Z,14.65
2022-12-12T15:55:01.750Z,14.75
2022-12-12T16:00:01.372Z,15.05
2022-12-12T16:05:06.712Z,14.48
2022-12-12T16:10:07.461Z,15.10
2022-12-12T16:15:00.082Z,14.77
2022-12-12T16:20:09.454Z,15.13
2022-12-12T16:25:27.448Z,14.60
2022-12-12T16:30:24.416Z,14.15
2022-12-12T16:35:28.479Z,15.77
2022-12-12T16:40:29.700Z,15.53
2022-12-12T16:45:37.042Z,16.57
2022-12-12T16:50:36.208Z,15.40
2022-12-12T16:55:31.487Z,15.50
2022-12-12T17:00:23.100Z,16.80
2022-12-12T17:05:30.317Z,17.60
2022-12-12T17:10:32.961Z,17.40
2022-12-12T17:15:31.001Z,18.73
2022-12-12T17:20:25.838Z,18.50
2022-12-12T17:25:19.963Z,18.50
2022-12-12T17:30:18.684Z,18.08
2022-12-12T17:35:17.165Z,17.55
2022-12-12T17:40:16.780Z,16.57
2022-12-12T17:45:13.419Z,17.58
2022-12-12T17:50:10.190Z,16.98
2022-12-12T17:55:55.296Z,17.13
2022-12-12T18:00:15.979Z,17.75
2022-12-12T18:05:17.028Z,19.48
2022-12-12T18:10:15.956Z,19.85
2022-12-12T18:15:10.776Z,22.73
2022-12-12T18:20:08.537Z,22.17
2022-12-12T18:25:10.756Z,22.52
2022-12-12T18:30:07.651Z,22.20
2022-12-12T18:35:08.613Z,21.90
2022-12-12T18:40:07.345Z,22.83
2022-12-12T18:45:03.087Z,21.80
2022-12-12T18:49:59.288Z,21.27
2022-12-12T18:54:58.626Z,19.95
2022-12-12T19:00:15.929Z,20.33
2022-12-12T19:05:16.426Z,19.83
2022-12-12T19:10:10.731Z,20.13
2022-12-12T19:15:17.605Z,25.50
2022-12-12T19:20:21.206Z,20.98
2022-12-12T19:25:13.701Z,20.52
2022-12-12T19:30:06.927Z,20.50
2022-12-12T19:35:05.760Z,20.73
2022-12-12T19:40:06.730Z,20.52
2022-12-12T19:45:01.793Z,21.10
2022-12-12T19:49:56.339Z,21.23
2022-12-12T19:54:57.501Z,19.63
2022-12-12T19:59:52.400Z,20.97
2022-12-12T20:04:46.245Z,20.60
2022-12-12T20:09:43.451Z,19.77
2022-12-12T20:14:48.968Z,17.40
2022-12-12T20:19:40.458Z,18.42
2022-12-12T20:24:32.784Z,18.35
2022-12-12T20:29:24.471Z,18.45
2022-12-12T20:34:29.558Z,18.25
2022-12-12T20:39:29.800Z,18.27
2022-12-12T20:44:23.285Z,17.65
2022-12-12T20:49:25.078Z,19.10
2022-12-12T20:54:25.538Z,17.65
2022-12-12T20:59:19.730Z,18.27
2022-12-12T21:04:17.340Z,16.98
2022-12-12T21:09:23.295Z,17.97
2022-12-12T21:14:28.888Z,19.00
2022-12-12T21:19:24.533Z,18.67
2022-12-12T21:24:26.461Z,19.17
2022-12-12T21:29:25.306Z,19.40
2022-12-12T21:34:19.466Z,20.42
2022-12-12T21:39:14.375Z,19.70
2022-12-12T21:44:07.401Z,21.05
2022-12-12T21:49:11.774Z,20.42
2022-12-12T21:54:09.869Z,19.55
2022-12-12T21:59:09.109Z,19.73
2022-12-12T22:04:03.561Z,19.40
2022-12-12T22:09:03.173Z,20.23
2022-12-12T22:13:56.100Z,20.10
2022-12-12T22:18:47.704Z,20.85
2022-12-12T22:23:43.839Z,21.35
2022-12-12T22:28:49.459Z,21.53
2022-12-12T22:33:41.467Z,22.67
2022-12-12T22:38:38.177Z,21.07
2022-12-12T22:43:33.152Z,19.98
2022-12-12T22:48:29.301Z,19.83
2022-12-12T22:53:24.151Z,19.92
2022-12-12T22:58:18.609Z,17.95
2022-12-12T23:03:20.923Z,19.90
2022-12-12T23:08:18.803Z,19.17
2022-12-12T23:13:19.248Z,19.70
2022-12-12T23:18:20.684Z,19.60
2022-12-12T23:23:15.877Z,19.40
2022-12-12T23:28:13.651Z,19.20
2022-12-12T23:33:06.744Z,18.90
2022-12-12T23:38:01.404Z,20.05
2022-12-12T23:42:52.582Z,19.98
2022-12-12T23:47:45.475Z,19.33
2022-12-12T23:52:44.460Z,19.10
2022-12-12T23:57:40.227Z,19.10
